sensor_id;sensor_type;location;lat;lon;timestamp;P1;durP1;ratioP1;P2;durP2;ratioP2
23129;SDS011;11734;51.046;13.778;2023-11-21T00:00:37;2.10;;;1.70;;
23129;SDS011;11734;51.046;13.778;2023-11-21T00:03:04;2.23;;;1.67;;
23129;SDS011;11734;51.046;13.778;2023-11-21T00:05:33;1.97;;;1.50;;
23129;SDS011;11734;51.046;13.778;2023-11-21T00:08:01;2.87;;;1.60;;
23129;SDS011;11734;51.046;13.778;2023-11-21T00:10:28;1.93;;;1.60;;
23129;SDS011;11734;51.046;13.778;2023-11-21T00:12:56;1.80;;;1.50;;
23129;SDS011;11734;51.046;13.778;2023-11-21T00:15:23;1.43;;;1.33;;
23129;SDS011;11734;51.046;13.778;2023-11-21T00:17:50;2.37;;;1.53;;
23129;SDS011;11734;51.046;13.778;2023-11-21T00:20:18;1.87;;;1.70;;
23129;SDS011;11734;51.046;13.778;2023-11-21T00:22:46;1.93;;;1.37;;
23129;SDS011;11734;51.046;13.778;2023-11-21T00:25:14;2.30;;;1.60;;
23129;SDS011;11734;51.046;13.778;2023-11-21T00:27:43;1.90;;;1.70;;
23129;SDS011;11734;51.046;13.778;2023-11-21T00:30:11;1.40;;;1.30;;
23129;SDS011;11734;51.046;13.778;2023-11-21T00:32:38;4.13;;;1.60;;
23129;SDS011;11734;51.046;13.778;2023-11-21T00:35:06;2.37;;;1.50;;
23129;SDS011;11734;51.046;13.778;2023-11-21T00:37:33;4.10;;;1.50;;
23129;SDS011;11734;51.046;13.778;2023-11-21T00:40:01;2.67;;;1.73;;
23129;SDS011;11734;51.046;13.778;2023-11-21T00:42:33;2.70;;;1.57;;
23129;SDS011;11734;51.046;13.778;2023-11-21T00:45:01;3.80;;;1.90;;
23129;SDS011;11734;51.046;13.778;2023-11-21T00:47:30;1.70;;;1.60;;
23129;SDS011;11734;51.046;13.778;2023-11-21T00:49:57;3.37;;;1.77;;
23129;SDS011;11734;51.046;13.778;2023-11-21T00:52:25;2.07;;;1.70;;
23129;SDS011;11734;51.046;13.778;2023-11-21T00:54:53;1.80;;;1.70;;
23129;SDS011;11734;51.046;13.778;2023-11-21T00:57:20;1.60;;;1.50;;
23129;SDS011;11734;51.046;13.778;2023-11-21T00:59:47;2.43;;;1.90;;
23129;SDS011;11734;51.046;13.778;2023-11-21T01:02:15;2.00;;;1.80;;
23129;SDS011;11734;51.046;13.778;2023-11-21T01:04:42;3.00;;;1.87;;
23129;SDS011;11734;51.046;13.778;2023-11-21T01:07:10;2.20;;;1.70;;
23129;SDS011;11734;51.046;13.778;2023-11-21T01:09:37;2.73;;;1.70;;
23129;SDS011;11734;51.046;13.778;2023-11-21T01:12:05;1.90;;;1.70;;
23129;SDS011;11734;51.046;13.778;2023-11-21T01:14:33;3.00;;;1.83;;
23129;SDS011;11734;51.046;13.778;2023-11-21T01:17:02;1.80;;;1.50;;
23129;SDS011;11734;51.046;13.778;2023-11-21T01:19:31;3.47;;;2.07;;
23129;SDS011;11734;51.046;13.778;2023-11-21T01:21:58;1.97;;;1.67;;
23129;SDS011;11734;51.046;13.778;2023-11-21T01:24:26;2.13;;;1.83;;
23129;SDS011;11734;51.046;13.778;2023-11-21T01:26:53;3.03;;;1.77;;
23129;SDS011;11734;51.046;13.778;2023-11-21T01:29:21;2.57;;;1.83;;
23129;SDS011;11734;51.046;13.778;2023-11-21T01:31:48;3.47;;;2.17;;
23129;SDS011;11734;51.046;13.778;2023-11-21T01:34:15;3.50;;;2.00;;
23129;SDS011;11734;51.046;13.778;2023-11-21T01:36:43;3.37;;;1.97;;
23129;SDS011;11734;51.046;13.778;2023-11-21T01:39:12;4.13;;;1.80;;
23129;SDS011;11734;51.046;13.778;2023-11-21T01:41:42;3.07;;;1.97;;
23129;SDS011;11734;51.046;13.778;2023-11-21T01:44:12;1.90;;;1.60;;
23129;SDS011;11734;51.046;13.778;2023-11-21T01:46:40;2.67;;;1.90;;
23129;SDS011;11734;51.046;13.778;2023-11-21T01:49:09;2.33;;;1.80;;
23129;SDS011;11734;51.046;13.778;2023-11-21T01:51:41;2.93;;;2.17;;
23129;SDS011;11734;51.046;13.778;2023-11-21T01:54:10;3.50;;;1.83;;
23129;SDS011;11734;51.046;13.778;2023-11-21T01:56:45;2.70;;;1.70;;
23129;SDS011;11734;51.046;13.778;2023-11-21T01:59:20;3.00;;;1.80;;
23129;SDS011;11734;51.046;13.778;2023-11-21T02:01:49;2.17;;;1.80;;
23129;SDS011;11734;51.046;13.778;2023-11-21T02:04:20;2.80;;;1.83;;
23129;SDS011;11734;51.046;13.778;2023-11-21T02:06:47;2.17;;;1.87;;
23129;SDS011;11734;51.046;13.778;2023-11-21T02:09:23;2.17;;;1.80;;
23129;SDS011;11734;51.046;13.778;2023-11-21T02:11:53;2.47;;;2.20;;
23129;SDS011;11734;51.046;13.778;2023-11-21T02:14:27;2.43;;;2.07;;
23129;SDS011;11734;51.046;13.778;2023-11-21T02:16:54;3.70;;;2.13;;
23129;SDS011;11734;51.046;13.778;2023-11-21T02:19:23;3.77;;;1.93;;
23129;SDS011;11734;51.046;13.778;2023-11-21T02:21:57;2.90;;;2.00;;
23129;SDS011;11734;51.046;13.778;2023-11-21T02:24:27;3.23;;;2.40;;
23129;SDS011;11734;51.046;13.778;2023-11-21T02:26:54;3.03;;;2.23;;
23129;SDS011;11734;51.046;13.778;2023-11-21T02:29:22;2.17;;;1.73;;
23129;SDS011;11734;51.046;13.778;2023-11-21T02:31:54;3.77;;;2.10;;
23129;SDS011;11734;51.046;13.778;2023-11-21T02:34:22;2.00;;;1.80;;
23129;SDS011;11734;51.046;13.778;2023-11-21T02:36:51;2.93;;;1.70;;
23129;SDS011;11734;51.046;13.778;2023-11-21T02:39:20;1.63;;;1.53;;
23129;SDS011;11734;51.046;13.778;2023-11-21T02:41:51;2.50;;;2.20;;
23129;SDS011;11734;51.046;13.778;2023-11-21T02:44:18;2.87;;;1.70;;
23129;SDS011;11734;51.046;13.778;2023-11-21T02:46:46;2.90;;;2.00;;
23129;SDS011;11734;51.046;13.778;2023-11-21T02:49:13;3.67;;;2.60;;
23129;SDS011;11734;51.046;13.778;2023-11-21T02:51:42;2.47;;;2.00;;
23129;SDS011;11734;51.046;13.778;2023-11-21T02:54:09;2.23;;;1.70;;
23129;SDS011;11734;51.046;13.778;2023-11-21T02:56:37;4.50;;;2.03;;
23129;SDS011;11734;51.046;13.778;2023-11-21T02:59:06;3.57;;;2.20;;
23129;SDS011;11734;51.046;13.778;2023-11-21T03:01:33;4.93;;;2.10;;
23129;SDS011;11734;51.046;13.778;2023-11-21T03:04:01;3.20;;;1.83;;
23129;SDS011;11734;51.046;13.778;2023-11-21T03:06:29;3.00;;;1.80;;
23129;SDS011;11734;51.046;13.778;2023-11-21T03:08:56;3.93;;;2.20;;
23129;SDS011;11734;51.046;13.778;2023-11-21T03:11:24;2.43;;;1.67;;
23129;SDS011;11734;51.046;13.778;2023-11-21T03:13:51;4.17;;;2.00;;
23129;SDS011;11734;51.046;13.778;2023-11-21T03:16:19;6.00;;;2.17;;
23129;SDS011;11734;51.046;13.778;2023-11-21T03:18:47;4.93;;;2.17;;
23129;SDS011;11734;51.046;13.778;2023-11-21T03:21:14;3.27;;;1.90;;
23129;SDS011;11734;51.046;13.778;2023-11-21T03:23:41;2.97;;;2.07;;
23129;SDS011;11734;51.046;13.778;2023-11-21T03:26:11;3.33;;;2.00;;
23129;SDS011;11734;51.046;13.778;2023-11-21T03:28:39;4.17;;;2.30;;
23129;SDS011;11734;51.046;13.778;2023-11-21T03:31:07;4.97;;;2.27;;
23129;SDS011;11734;51.046;13.778;2023-11-21T03:33:35;2.90;;;2.20;;
23129;SDS011;11734;51.046;13.778;2023-11-21T03:36:03;3.07;;;2.13;;
23129;SDS011;11734;51.046;13.778;2023-11-21T03:38:30;4.03;;;1.97;;
23129;SDS011;11734;51.046;13.778;2023-11-21T03:40:57;3.63;;;2.17;;
23129;SDS011;11734;51.046;13.778;2023-11-21T03:43:27;2.80;;;2.10;;
23129;SDS011;11734;51.046;13.778;2023-11-21T03:45:55;4.60;;;2.33;;
23129;SDS011;11734;51.046;13.778;2023-11-21T03:48:22;5.93;;;2.03;;
23129;SDS011;11734;51.046;13.778;2023-11-21T03:50:49;6.97;;;2.33;;
23129;SDS011;11734;51.046;13.778;2023-11-21T03:53:17;4.53;;;2.50;;
23129;SDS011;11734;51.046;13.778;2023-11-21T03:55:44;3.53;;;1.77;;
23129;SDS011;11734;51.046;13.778;2023-11-21T03:58:12;4.80;;;1.87;;
23129;SDS011;11734;51.046;13.778;2023-11-21T04:00:39;2.57;;;2.20;;
23129;SDS011;11734;51.046;13.778;2023-11-21T04:03:07;2.83;;;2.30;;
23129;SDS011;11734;51.046;13.778;2023-11-21T04:05:34;4.50;;;2.20;;
23129;SDS011;11734;51.046;13.778;2023-11-21T04:08:01;4.90;;;2.00;;
23129;SDS011;11734;51.046;13.778;2023-11-21T04:10:29;7.93;;;2.70;;
23129;SDS011;11734;51.046;13.778;2023-11-21T04:12:56;5.30;;;2.93;;
23129;SDS011;11734;51.046;13.778;2023-11-21T04:15:23;5.53;;;2.50;;
23129;SDS011;11734;51.046;13.778;2023-11-21T04:17:51;2.93;;;2.40;;
23129;SDS011;11734;51.046;13.778;2023-11-21T04:20:18;5.70;;;2.40;;
23129;SDS011;11734;51.046;13.778;2023-11-21T04:22:46;5.37;;;2.80;;
23129;SDS011;11734;51.046;13.778;2023-11-21T04:25:14;3.00;;;2.30;;
23129;SDS011;11734;51.046;13.778;2023-11-21T04:27:43;3.13;;;2.30;;
23129;SDS011;11734;51.046;13.778;2023-11-21T04:30:11;4.27;;;2.70;;
23129;SDS011;11734;51.046;13.778;2023-11-21T04:32:38;7.40;;;3.00;;
23129;SDS011;11734;51.046;13.778;2023-11-21T04:35:06;3.50;;;2.30;;
23129;SDS011;11734;51.046;13.778;2023-11-21T04:37:35;4.57;;;2.30;;
23129;SDS011;11734;51.046;13.778;2023-11-21T04:40:02;4.27;;;2.13;;
23129;SDS011;11734;51.046;13.778;2023-11-21T04:42:34;3.77;;;2.77;;
23129;SDS011;11734;51.046;13.778;2023-11-21T04:45:05;2.83;;;2.17;;
23129;SDS011;11734;51.046;13.778;2023-11-21T04:47:38;3.63;;;2.60;;
23129;SDS011;11734;51.046;13.778;2023-11-21T04:50:05;5.27;;;3.03;;
23129;SDS011;11734;51.046;13.778;2023-11-21T04:52:32;3.47;;;2.83;;
23129;SDS011;11734;51.046;13.778;2023-11-21T04:55:00;3.40;;;2.63;;
23129;SDS011;11734;51.046;13.778;2023-11-21T04:57:28;5.43;;;2.60;;
23129;SDS011;11734;51.046;13.778;2023-11-21T04:59:56;4.37;;;3.20;;
23129;SDS011;11734;51.046;13.778;2023-11-21T05:02:23;5.97;;;2.70;;
23129;SDS011;11734;51.046;13.778;2023-11-21T05:05:04;4.83;;;2.80;;
23129;SDS011;11734;51.046;13.778;2023-11-21T05:07:32;4.47;;;2.47;;
23129;SDS011;11734;51.046;13.778;2023-11-21T05:10:03;4.77;;;3.10;;
23129;SDS011;11734;51.046;13.778;2023-11-21T05:12:32;5.73;;;2.73;;
23129;SDS011;11734;51.046;13.778;2023-11-21T05:15:06;4.33;;;2.67;;
23129;SDS011;11734;51.046;13.778;2023-11-21T05:17:38;4.17;;;3.07;;
23129;SDS011;11734;51.046;13.778;2023-11-21T05:20:10;13.57;;;9.23;;
23129;SDS011;11734;51.046;13.778;2023-11-21T05:22:39;17.77;;;10.83;;
23129;SDS011;11734;51.046;13.778;2023-11-21T05:25:06;7.60;;;5.30;;
23129;SDS011;11734;51.046;13.778;2023-11-21T05:27:35;6.57;;;3.30;;
23129;SDS011;11734;51.046;13.778;2023-11-21T05:30:03;5.20;;;3.20;;
23129;SDS011;11734;51.046;13.778;2023-11-21T05:32:35;3.83;;;2.90;;
23129;SDS011;11734;51.046;13.778;2023-11-21T05:35:03;3.90;;;3.13;;
23129;SDS011;11734;51.046;13.778;2023-11-21T05:37:35;4.47;;;2.80;;
23129;SDS011;11734;51.046;13.778;2023-11-21T05:40:05;5.60;;;2.87;;
23129;SDS011;11734;51.046;13.778;2023-11-21T05:42:33;4.03;;;2.73;;
23129;SDS011;11734;51.046;13.778;2023-11-21T05:45:01;4.97;;;2.90;;
23129;SDS011;11734;51.046;13.778;2023-11-21T05:47:45;4.63;;;3.10;;
23129;SDS011;11734;51.046;13.778;2023-11-21T05:50:15;4.13;;;2.63;;
23129;SDS011;11734;51.046;13.778;2023-11-21T05:52:43;3.90;;;2.77;;
23129;SDS011;11734;51.046;13.778;2023-11-21T05:55:11;6.67;;;3.10;;
23129;SDS011;11734;51.046;13.778;2023-11-21T05:57:40;6.37;;;2.87;;
23129;SDS011;11734;51.046;13.778;2023-11-21T06:00:16;8.07;;;3.10;;
23129;SDS011;11734;51.046;13.778;2023-11-21T06:02:53;7.50;;;3.10;;
23129;SDS011;11734;51.046;13.778;2023-11-21T06:05:22;5.90;;;3.60;;
23129;SDS011;11734;51.046;13.778;2023-11-21T06:07:50;7.73;;;3.57;;
23129;SDS011;11734;51.046;13.778;2023-11-21T06:10:22;5.53;;;3.10;;
23129;SDS011;11734;51.046;13.778;2023-11-21T06:12:51;5.60;;;3.17;;
23129;SDS011;11734;51.046;13.778;2023-11-21T06:15:19;7.67;;;3.33;;
23129;SDS011;11734;51.046;13.778;2023-11-21T06:17:47;6.37;;;3.33;;
23129;SDS011;11734;51.046;13.778;2023-11-21T06:20:21;7.67;;;4.57;;
23129;SDS011;11734;51.046;13.778;2023-11-21T06:22:50;8.77;;;5.30;;
23129;SDS011;11734;51.046;13.778;2023-11-21T06:25:18;9.60;;;5.20;;
23129;SDS011;11734;51.046;13.778;2023-11-21T06:27:45;7.83;;;3.57;;
23129;SDS011;11734;51.046;13.778;2023-11-21T06:30:14;4.63;;;3.40;;
23129;SDS011;11734;51.046;13.778;2023-11-21T06:32:42;5.40;;;3.20;;
23129;SDS011;11734;51.046;13.778;2023-11-21T06:35:13;6.37;;;3.60;;
23129;SDS011;11734;51.046;13.778;2023-11-21T06:37:43;5.60;;;2.90;;
23129;SDS011;11734;51.046;13.778;2023-11-21T06:40:18;6.53;;;3.93;;
23129;SDS011;11734;51.046;13.778;2023-11-21T06:42:46;6.30;;;3.77;;
23129;SDS011;11734;51.046;13.778;2023-11-21T06:45:14;7.50;;;3.93;;
23129;SDS011;11734;51.046;13.778;2023-11-21T06:47:42;6.87;;;3.43;;
23129;SDS011;11734;51.046;13.778;2023-11-21T06:50:10;6.53;;;3.87;;
23129;SDS011;11734;51.046;13.778;2023-11-21T06:52:37;6.90;;;3.93;;
23129;SDS011;11734;51.046;13.778;2023-11-21T06:55:05;9.87;;;4.20;;
23129;SDS011;11734;51.046;13.778;2023-11-21T06:57:35;8.53;;;4.40;;
23129;SDS011;11734;51.046;13.778;2023-11-21T07:00:02;8.47;;;4.40;;
23129;SDS011;11734;51.046;13.778;2023-11-21T07:02:29;6.67;;;4.13;;
23129;SDS011;11734;51.046;13.778;2023-11-21T07:04:57;12.00;;;4.80;;
23129;SDS011;11734;51.046;13.778;2023-11-21T07:07:24;9.47;;;4.23;;
23129;SDS011;11734;51.046;13.778;2023-11-21T07:09:51;5.07;;;3.83;;
23129;SDS011;11734;51.046;13.778;2023-11-21T07:12:19;7.97;;;4.63;;
23129;SDS011;11734;51.046;13.778;2023-11-21T07:14:49;7.10;;;4.10;;
23129;SDS011;11734;51.046;13.778;2023-11-21T07:17:17;8.27;;;4.90;;
23129;SDS011;11734;51.046;13.778;2023-11-21T07:19:44;7.83;;;4.60;;
23129;SDS011;11734;51.046;13.778;2023-11-21T07:22:12;8.17;;;4.37;;
23129;SDS011;11734;51.046;13.778;2023-11-21T07:24:40;9.33;;;5.17;;
23129;SDS011;11734;51.046;13.778;2023-11-21T07:27:07;8.97;;;4.00;;
23129;SDS011;11734;51.046;13.778;2023-11-21T07:29:35;7.07;;;4.30;;
23129;SDS011;11734;51.046;13.778;2023-11-21T07:32:02;11.17;;;5.07;;
23129;SDS011;11734;51.046;13.778;2023-11-21T07:34:29;9.07;;;4.77;;
23129;SDS011;11734;51.046;13.778;2023-11-21T07:36:57;9.00;;;4.67;;
23129;SDS011;11734;51.046;13.778;2023-11-21T07:39:24;9.30;;;4.73;;
23129;SDS011;11734;51.046;13.778;2023-11-21T07:41:51;8.83;;;4.57;;
23129;SDS011;11734;51.046;13.778;2023-11-21T07:44:19;10.53;;;4.40;;
23129;SDS011;11734;51.046;13.778;2023-11-21T07:46:47;8.57;;;4.47;;
23129;SDS011;11734;51.046;13.778;2023-11-21T07:49:16;8.83;;;4.40;;
23129;SDS011;11734;51.046;13.778;2023-11-21T07:51:47;9.30;;;4.87;;
23129;SDS011;11734;51.046;13.778;2023-11-21T07:54:14;8.77;;;4.63;;
23129;SDS011;11734;51.046;13.778;2023-11-21T07:56:42;6.50;;;4.50;;
23129;SDS011;11734;51.046;13.778;2023-11-21T07:59:09;11.37;;;4.80;;
23129;SDS011;11734;51.046;13.778;2023-11-21T08:01:37;7.00;;;4.63;;
23129;SDS011;11734;51.046;13.778;2023-11-21T08:04:07;10.67;;;4.90;;
23129;SDS011;11734;51.046;13.778;2023-11-21T08:06:34;8.97;;;5.00;;
23129;SDS011;11734;51.046;13.778;2023-11-21T08:09:02;8.00;;;4.50;;
23129;SDS011;11734;51.046;13.778;2023-11-21T08:11:29;10.10;;;4.93;;
23129;SDS011;11734;51.046;13.778;2023-11-21T08:13:58;8.23;;;5.00;;
23129;SDS011;11734;51.046;13.778;2023-11-21T08:16:26;8.40;;;4.67;;
23129;SDS011;11734;51.046;13.778;2023-11-21T08:18:54;11.10;;;4.80;;
23129;SDS011;11734;51.046;13.778;2023-11-21T08:21:21;8.73;;;4.80;;
23129;SDS011;11734;51.046;13.778;2023-11-21T08:23:55;10.77;;;5.37;;
23129;SDS011;11734;51.046;13.778;2023-11-21T08:26:23;11.70;;;5.33;;
23129;SDS011;11734;51.046;13.778;2023-11-21T08:28:50;11.40;;;5.80;;
23129;SDS011;11734;51.046;13.778;2023-11-21T08:31:25;11.00;;;5.47;;
23129;SDS011;11734;51.046;13.778;2023-11-21T08:33:52;10.43;;;5.30;;
23129;SDS011;11734;51.046;13.778;2023-11-21T08:36:23;9.93;;;6.07;;
23129;SDS011;11734;51.046;13.778;2023-11-21T08:38:51;17.10;;;6.67;;
23129;SDS011;11734;51.046;13.778;2023-11-21T08:41:18;14.00;;;7.20;;
23129;SDS011;11734;51.046;13.778;2023-11-21T08:43:52;12.57;;;6.97;;
23129;SDS011;11734;51.046;13.778;2023-11-21T08:46:21;12.93;;;7.20;;
23129;SDS011;11734;51.046;13.778;2023-11-21T08:48:49;12.30;;;7.43;;
23129;SDS011;11734;51.046;13.778;2023-11-21T08:51:18;12.97;;;7.10;;
23129;SDS011;11734;51.046;13.778;2023-11-21T08:53:46;11.27;;;6.37;;
23129;SDS011;11734;51.046;13.778;2023-11-21T08:56:14;16.17;;;7.50;;
23129;SDS011;11734;51.046;13.778;2023-11-21T08:58:41;20.07;;;7.57;;
23129;SDS011;11734;51.046;13.778;2023-11-21T09:01:09;12.80;;;7.47;;
23129;SDS011;11734;51.046;13.778;2023-11-21T09:03:36;15.60;;;7.60;;
23129;SDS011;11734;51.046;13.778;2023-11-21T09:06:04;13.33;;;6.77;;
23129;SDS011;11734;51.046;13.778;2023-11-21T09:08:31;16.10;;;7.60;;
23129;SDS011;11734;51.046;13.778;2023-11-21T09:10:59;11.23;;;7.10;;
23129;SDS011;11734;51.046;13.778;2023-11-21T09:13:26;10.80;;;6.00;;
23129;SDS011;11734;51.046;13.778;2023-11-21T09:15:54;11.10;;;5.60;;
23129;SDS011;11734;51.046;13.778;2023-11-21T09:18:21;11.03;;;5.97;;
23129;SDS011;11734;51.046;13.778;2023-11-21T09:20:48;11.20;;;6.07;;
23129;SDS011;11734;51.046;13.778;2023-11-21T09:23:16;9.70;;;6.17;;
23129;SDS011;11734;51.046;13.778;2023-11-21T09:25:43;11.67;;;6.53;;
23129;SDS011;11734;51.046;13.778;2023-11-21T09:28:12;13.43;;;7.17;;
23129;SDS011;11734;51.046;13.778;2023-11-21T09:30:40;11.87;;;6.67;;
23129;SDS011;11734;51.046;13.778;2023-11-21T09:33:08;11.10;;;6.50;;
23129;SDS011;11734;51.046;13.778;2023-11-21T09:35:37;9.67;;;6.40;;
23129;SDS011;11734;51.046;13.778;2023-11-21T09:38:05;11.37;;;6.70;;
23129;SDS011;11734;51.046;13.778;2023-11-21T09:40:37;12.00;;;6.93;;
23129;SDS011;11734;51.046;13.778;2023-11-21T09:43:17;12.63;;;7.60;;
23129;SDS011;11734;51.046;13.778;2023-11-21T09:45:46;9.60;;;6.60;;
23129;SDS011;11734;51.046;13.778;2023-11-21T09:48:14;13.13;;;7.50;;
23129;SDS011;11734;51.046;13.778;2023-11-21T09:50:43;9.67;;;5.83;;
23129;SDS011;11734;51.046;13.778;2023-11-21T09:53:17;6.57;;;5.20;;
23129;SDS011;11734;51.046;13.778;2023-11-21T09:55:48;7.07;;;4.87;;
23129;SDS011;11734;51.046;13.778;2023-11-21T09:58:17;5.80;;;4.30;;
23129;SDS011;11734;51.046;13.778;2023-11-21T10:00:49;4.97;;;3.30;;
23129;SDS011;11734;51.046;13.778;2023-11-21T10:03:16;2.97;;;2.67;;
23129;SDS011;11734;51.046;13.778;2023-11-21T10:05:44;4.40;;;3.20;;
23129;SDS011;11734;51.046;13.778;2023-11-21T10:08:12;4.40;;;3.77;;
23129;SDS011;11734;51.046;13.778;2023-11-21T10:10:44;4.93;;;4.30;;
23129;SDS011;11734;51.046;13.778;2023-11-21T10:13:12;6.87;;;5.13;;
23129;SDS011;11734;51.046;13.778;2023-11-21T10:15:43;6.93;;;6.33;;
23129;SDS011;11734;51.046;13.778;2023-11-21T10:18:15;8.73;;;7.00;;
23129;SDS011;11734;51.046;13.778;2023-11-21T10:20:42;7.87;;;6.80;;
23129;SDS011;11734;51.046;13.778;2023-11-21T10:23:12;9.40;;;7.37;;
23129;SDS011;11734;51.046;13.778;2023-11-21T10:25:42;9.93;;;7.70;;
23129;SDS011;11734;51.046;13.778;2023-11-21T10:28:09;9.53;;;7.43;;
23129;SDS011;11734;51.046;13.778;2023-11-21T10:30:37;8.83;;;6.73;;
23129;SDS011;11734;51.046;13.778;2023-11-21T10:33:06;8.77;;;6.80;;
23129;SDS011;11734;51.046;13.778;2023-11-21T10:35:56;7.83;;;5.70;;
23129;SDS011;11734;51.046;13.778;2023-11-21T10:38:22;8.00;;;6.10;;
23129;SDS011;11734;51.046;13.778;2023-11-21T10:40:51;7.37;;;5.83;;
23129;SDS011;11734;51.046;13.778;2023-11-21T10:43:19;7.87;;;5.97;;
23129;SDS011;11734;51.046;13.778;2023-11-21T10:45:46;7.60;;;6.03;;
23129;SDS011;11734;51.046;13.778;2023-11-21T10:48:14;9.00;;;6.60;;
23129;SDS011;11734;51.046;13.778;2023-11-21T10:50:43;6.90;;;5.47;;
23129;SDS011;11734;51.046;13.778;2023-11-21T10:53:10;8.90;;;6.80;;
23129;SDS011;11734;51.046;13.778;2023-11-21T10:55:41;9.03;;;6.33;;
23129;SDS011;11734;51.046;13.778;2023-11-21T10:58:11;8.17;;;6.40;;
23129;SDS011;11734;51.046;13.778;2023-11-21T11:00:41;8.33;;;6.47;;
23129;SDS011;11734;51.046;13.778;2023-11-21T11:03:11;12.97;;;7.60;;
23129;SDS011;11734;51.046;13.778;2023-11-21T11:05:44;10.40;;;6.40;;
23129;SDS011;11734;51.046;13.778;2023-11-21T11:08:18;9.83;;;6.33;;
23129;SDS011;11734;51.046;13.778;2023-11-21T11:10:54;9.83;;;6.93;;
23129;SDS011;11734;51.046;13.778;2023-11-21T11:13:21;8.07;;;6.00;;
23129;SDS011;11734;51.046;13.778;2023-11-21T11:15:49;8.53;;;6.27;;
23129;SDS011;11734;51.046;13.778;2023-11-21T11:18:17;7.83;;;5.70;;
23129;SDS011;11734;51.046;13.778;2023-11-21T11:20:45;7.93;;;5.80;;
23129;SDS011;11734;51.046;13.778;2023-11-21T11:25:46;9.53;;;6.40;;
23129;SDS011;11734;51.046;13.778;2023-11-21T11:28:27;9.17;;;6.17;;
23129;SDS011;11734;51.046;13.778;2023-11-21T11:31:03;7.67;;;5.33;;
23129;SDS011;11734;51.046;13.778;2023-11-21T11:36:22;6.37;;;5.07;;
23129;SDS011;11734;51.046;13.778;2023-11-21T11:38:52;7.23;;;5.53;;
23129;SDS011;11734;51.046;13.778;2023-11-21T11:41:26;7.17;;;5.33;;
23129;SDS011;11734;51.046;13.778;2023-11-21T11:43:53;6.23;;;5.20;;
23129;SDS011;11734;51.046;13.778;2023-11-21T11:46:35;7.23;;;5.20;;
23129;SDS011;11734;51.046;13.778;2023-11-21T11:49:08;6.27;;;5.40;;
23129;SDS011;11734;51.046;13.778;2023-11-21T11:51:35;6.80;;;5.00;;
23129;SDS011;11734;51.046;13.778;2023-11-21T11:54:02;7.77;;;5.73;;
23129;SDS011;11734;51.046;13.778;2023-11-21T11:56:30;7.13;;;5.50;;
23129;SDS011;11734;51.046;13.778;2023-11-21T11:59:03;6.90;;;5.30;;
23129;SDS011;11734;51.046;13.778;2023-11-21T12:01:36;6.30;;;5.17;;
23129;SDS011;11734;51.046;13.778;2023-11-21T12:06:47;6.77;;;5.57;;
23129;SDS011;11734;51.046;13.778;2023-11-21T12:09:17;8.80;;;5.80;;
23129;SDS011;11734;51.046;13.778;2023-11-21T12:11:46;8.67;;;5.53;;
23129;SDS011;11734;51.046;13.778;2023-11-21T12:14:13;7.57;;;4.90;;
23129;SDS011;11734;51.046;13.778;2023-11-21T12:16:42;7.30;;;5.40;;
23129;SDS011;11734;51.046;13.778;2023-11-21T12:19:10;7.97;;;5.73;;
23129;SDS011;11734;51.046;13.778;2023-11-21T12:21:37;7.70;;;5.73;;
23129;SDS011;11734;51.046;13.778;2023-11-21T12:24:05;8.07;;;5.90;;
23129;SDS011;11734;51.046;13.778;2023-11-21T12:26:35;7.33;;;5.70;;
23129;SDS011;11734;51.046;13.778;2023-11-21T12:29:03;6.57;;;5.50;;
23129;SDS011;11734;51.046;13.778;2023-11-21T12:31:33;7.90;;;5.13;;
23129;SDS011;11734;51.046;13.778;2023-11-21T12:34:01;6.63;;;5.23;;
23129;SDS011;11734;51.046;13.778;2023-11-21T12:36:28;7.80;;;5.90;;
23129;SDS011;11734;51.046;13.778;2023-11-21T12:38:56;7.80;;;5.93;;
23129;SDS011;11734;51.046;13.778;2023-11-21T12:41:23;8.73;;;6.80;;
23129;SDS011;11734;51.046;13.778;2023-11-21T12:43:51;8.97;;;6.27;;
23129;SDS011;11734;51.046;13.778;2023-11-21T12:46:19;8.87;;;6.77;;
23129;SDS011;11734;51.046;13.778;2023-11-21T12:48:47;10.27;;;7.40;;
23129;SDS011;11734;51.046;13.778;2023-11-21T12:51:14;8.40;;;6.77;;
23129;SDS011;11734;51.046;13.778;2023-11-21T12:53:45;10.03;;;7.20;;
23129;SDS011;11734;51.046;13.778;2023-11-21T12:56:13;10.47;;;6.97;;
23129;SDS011;11734;51.046;13.778;2023-11-21T12:58:44;9.50;;;6.90;;
23129;SDS011;11734;51.046;13.778;2023-11-21T13:01:13;9.13;;;6.53;;
23129;SDS011;11734;51.046;13.778;2023-11-21T13:03:48;9.30;;;5.87;;
23129;SDS011;11734;51.046;13.778;2023-11-21T13:06:17;7.63;;;6.30;;
23129;SDS011;11734;51.046;13.778;2023-11-21T13:08:46;7.80;;;6.60;;
23129;SDS011;11734;51.046;13.778;2023-11-21T13:11:13;10.37;;;7.67;;
23129;SDS011;11734;51.046;13.778;2023-11-21T13:13:41;10.13;;;7.53;;
23129;SDS011;11734;51.046;13.778;2023-11-21T13:16:10;12.27;;;8.83;;
23129;SDS011;11734;51.046;13.778;2023-11-21T13:18:37;12.50;;;8.07;;
23129;SDS011;11734;51.046;13.778;2023-11-21T13:21:07;12.67;;;8.43;;
23129;SDS011;11734;51.046;13.778;2023-11-21T13:23:41;12.03;;;8.00;;
23129;SDS011;11734;51.046;13.778;2023-11-21T13:26:09;11.60;;;8.37;;
23129;SDS011;11734;51.046;13.778;2023-11-21T13:28:36;12.73;;;8.27;;
23129;SDS011;11734;51.046;13.778;2023-11-21T13:31:05;10.00;;;7.30;;
23129;SDS011;11734;51.046;13.778;2023-11-21T13:33:49;11.57;;;7.80;;
23129;SDS011;11734;51.046;13.778;2023-11-21T13:36:25;9.73;;;6.80;;
23129;SDS011;11734;51.046;13.778;2023-11-21T13:38:57;12.17;;;7.57;;
23129;SDS011;11734;51.046;13.778;2023-11-21T13:41:25;11.50;;;7.87;;
23129;SDS011;11734;51.046;13.778;2023-11-21T13:43:58;13.57;;;8.67;;
23129;SDS011;11734;51.046;13.778;2023-11-21T13:46:40;12.60;;;8.50;;
23129;SDS011;11734;51.046;13.778;2023-11-21T13:49:07;10.90;;;7.90;;
23129;SDS011;11734;51.046;13.778;2023-11-21T13:51:38;15.17;;;8.90;;
23129;SDS011;11734;51.046;13.778;2023-11-21T13:54:11;13.47;;;8.43;;
23129;SDS011;11734;51.046;13.778;2023-11-21T13:56:39;15.03;;;9.00;;
23129;SDS011;11734;51.046;13.778;2023-11-21T13:59:07;14.63;;;9.30;;
23129;SDS011;11734;51.046;13.778;2023-11-21T14:01:50;15.33;;;9.60;;
23129;SDS011;11734;51.046;13.778;2023-11-21T14:04:21;15.70;;;8.70;;
23129;SDS011;11734;51.046;13.778;2023-11-21T14:07:07;15.17;;;9.23;;
23129;SDS011;11734;51.046;13.778;2023-11-21T14:09:51;14.50;;;9.00;;
23129;SDS011;11734;51.046;13.778;2023-11-21T14:12:19;14.00;;;8.57;;
23129;SDS011;11734;51.046;13.778;2023-11-21T14:14:46;14.50;;;9.23;;
23129;SDS011;11734;51.046;13.778;2023-11-21T14:17:15;13.37;;;8.33;;
23129;SDS011;11734;51.046;13.778;2023-11-21T14:19:42;11.13;;;7.77;;
23129;SDS011;11734;51.046;13.778;2023-11-21T14:22:11;12.17;;;8.00;;
23129;SDS011;11734;51.046;13.778;2023-11-21T14:24:38;12.73;;;7.47;;
23129;SDS011;11734;51.046;13.778;2023-11-21T14:27:10;12.37;;;7.90;;
23129;SDS011;11734;51.046;13.778;2023-11-21T14:29:37;11.63;;;7.63;;
23129;SDS011;11734;51.046;13.778;2023-11-21T14:32:06;11.90;;;7.13;;
23129;SDS011;11734;51.046;13.778;2023-11-21T14:34:34;10.77;;;7.93;;
23129;SDS011;11734;51.046;13.778;2023-11-21T14:37:02;14.03;;;8.40;;
23129;SDS011;11734;51.046;13.778;2023-11-21T14:39:30;13.20;;;7.83;;
23129;SDS011;11734;51.046;13.778;2023-11-21T14:42:01;12.90;;;8.80;;
23129;SDS011;11734;51.046;13.778;2023-11-21T14:44:29;14.13;;;8.03;;
23129;SDS011;11734;51.046;13.778;2023-11-21T14:47:02;11.90;;;7.83;;
23129;SDS011;11734;51.046;13.778;2023-11-21T14:49:34;10.20;;;6.93;;